Time;durP1;ratioP1;P1;durP2;ratioP2;P2;SDS_P1;SDS_P2;PMS_P1;PMS_P2;Temp;Humidity;BMP_temperature;BMP_pressure;BME280_temperature;BME280_humidity;BME280_pressure;Samples;Min_cycle;Max_cycle;Signal;HPM_P1;HPM_P2
2022/06/15 00:00:28;;;;;;;7.22;5.93;;;;;;;21.02;63.76;99600.00;5053008;28;20443;-87
2022/06/15 00:02:54;;;;;;;7.68;5.72;;;;;;;21.13;63.86;99626.75;5052810;28;20513;-87
2022/06/15 00:05:19;;;;;;;6.68;5.70;;;;;;;21.10;64.08;99631.78;5052726;28;20033;-86
2022/06/15 00:07:45;;;;;;;6.75;5.70;;;;;;;21.46;63.92;99660.84;5053781;28;20024;-87
2022/06/15 00:10:10;;;;;;;8.95;6.22;;;;;;;20.97;63.85;99584.63;5052557;28;20021;-88
2022/06/15 00:12:37;;;;;;;8.13;6.00;;;;;;;21.79;63.79;99713.75;5052601;28;20023;-87
2022/06/15 00:15:04;;;;;;;6.03;5.47;;;;;;;21.25;63.75;99645.50;5052467;28;20032;-87
2022/06/15 00:17:29;;;;;;;7.00;6.30;;;;;;;21.22;63.68;99635.22;5052552;28;20463;-87
2022/06/15 00:19:55;;;;;;;6.57;5.97;;;;;;;21.65;64.22;99714.34;5052172;28;20108;-87
2022/06/15 00:22:20;;;;;;;9.02;6.30;;;;;;;21.66;64.08;99707.91;5052531;28;20474;-86
2022/06/15 00:24:45;;;;;;;7.72;6.28;;;;;;;21.64;64.25;99694.72;5053934;28;20107;-87
2022/06/15 00:27:12;;;;;;;7.63;6.20;;;;;;;21.69;64.32;99715.50;5052303;28;20114;-87
2022/06/15 00:29:37;;;;;;;6.65;5.90;;;;;;;21.48;64.30;99674.03;5053321;28;20141;-87
2022/06/15 00:32:07;;;;;;;7.20;5.65;;;;;;;20.86;63.87;99594.38;5052128;28;20029;-87
2022/06/15 00:34:33;;;;;;;6.28;5.68;;;;;;;21.35;63.69;99683.25;5053413;28;20052;-87
2022/06/15 00:37:01;;;;;;;6.97;6.20;;;;;;;21.78;63.85;99724.75;5052399;28;20469;-87
2022/06/15 00:39:27;;;;;;;8.00;6.85;;;;;;;21.13;63.82;99642.84;5052205;28;20494;-88
2022/06/15 00:41:52;;;;;;;7.03;5.85;;;;;;;21.16;63.90;99637.00;5051528;28;20013;-87
2022/06/15 00:44:24;;;;;;;7.35;6.47;;;;;;;21.70;63.87;99717.13;5052128;28;20504;-86
2022/06/15 00:47:04;;;;;;;7.32;6.35;;;;;;;21.66;63.96;99718.66;5051864;28;20052;-87
2022/06/15 00:49:35;;;;;;;7.45;6.47;;;;;;;21.38;64.33;99687.31;5053348;28;20517;-86
2022/06/15 00:52:40;;;;;;;6.78;6.18;;;;;;;21.51;64.33;99711.97;5053340;28;20490;-87
2022/06/15 00:55:12;;;;;;;9.68;5.70;;;;;;;21.48;64.26;99706.28;5032760;28;20056;-87
2022/06/15 00:57:39;;;;;;;6.55;5.68;;;;;;;20.83;64.32;99604.78;5052933;28;20032;-87
2022/06/15 01:00:06;;;;;;;6.38;5.75;;;;;;;21.44;64.53;99705.13;5051584;28;20099;-87
2022/06/15 01:02:36;;;;;;;6.22;5.72;;;;;;;21.45;64.31;99707.56;5052664;28;20489;-87
2022/06/15 01:05:13;;;;;;;7.15;6.30;;;;;;;21.44;64.56;99703.25;5052777;28;20481;-87
2022/06/15 01:07:38;;;;;;;6.55;5.95;;;;;;;21.43;64.33;99701.63;5051269;28;20032;-87
2022/06/15 01:10:16;;;;;;;6.35;5.60;;;;;;;21.43;64.21;99707.00;5052589;28;20021;-87
2022/06/15 01:12:54;;;;;;;6.70;6.00;;;;;;;21.42;64.20;99700.00;5051401;28;20444;-86
2022/06/15 01:15:46;;;;;;;7.00;6.07;;;;;;;21.26;64.31;99679.34;5052603;28;20025;-86
2022/06/15 01:18:28;;;;;;;6.50;5.93;;;;;;;21.43;64.29;99698.94;5051172;28;20513;-87
2022/06/15 01:21:21;;;;;;;7.05;6.25;;;;;;;21.42;64.04;99697.31;5052729;28;20025;-86
2022/06/15 01:24:16;;;;;;;6.82;5.95;;;;;;;21.42;64.40;99697.31;5052799;28;20025;-87
2022/06/15 01:26:50;;;;;;;7.75;5.88;;;;;;;21.47;64.21;99699.28;5051257;28;20036;-86
2022/06/15 01:29:28;;;;;;;7.28;6.57;;;;;;;21.48;64.11;99699.03;5052598;28;20025;-87
2022/06/15 01:32:18;;;;;;;6.75;6.15;;;;;;;21.45;64.30;99690.66;5051270;28;20029;-87
2022/06/15 01:35:04;;;;;;;7.63;6.40;;;;;;;21.40;64.48;99696.75;5052380;28;20453;-86
2022/06/15 01:37:56;;;;;;;7.28;6.57;;;;;;;21.37;64.90;99696.44;5051909;28;20028;-87
2022/06/15 01:40:33;;;;;;;7.32;6.05;;;;;;;21.36;64.87;99695.63;5050447;28;20020;-86
2022/06/15 01:43:15;;;;;;;6.03;5.53;;;;;;;21.37;65.04;99699.13;5050709;28;20021;-86
2022/06/15 01:45:41;;;;;;;8.32;6.15;;;;;;;21.30;65.07;99679.66;5051999;28;20024;-87
2022/06/15 01:48:11;;;;;;;6.03;5.53;;;;;;;21.21;64.90;99665.81;5050423;28;20032;-87
2022/06/15 01:50:45;;;;;;;6.43;5.55;;;;;;;21.37;64.42;99691.88;5051968;28;20024;-86
2022/06/15 01:53:25;;;;;;;8.30;5.82;;;;;;;21.03;64.89;99658.00;5051565;28;20429;-86
2022/06/15 01:56:12;;;;;;;6.60;5.90;;;;;;;21.34;64.87;99696.91;5050408;28;20053;-87
2022/06/15 01:58:42;;;;;;;7.10;6.40;;;;;;;20.66;64.99;99603.94;5052067;28;20025;-87
2022/06/15 02:01:20;;;;;;;7.50;6.47;;;;;;;21.27;64.95;99707.81;5050648;28;20530;-86
2022/06/15 02:03:52;;;;;;;7.28;5.85;;;;;;;21.31;65.30;99718.91;5051824;28;20025;-86
2022/06/15 02:06:27;;;;;;;8.40;6.13;;;;;;;21.30;65.01;99719.94;5050140;28;20032;-86
2022/06/15 02:09:20;;;;;;;7.38;6.65;;;;;;;21.28;65.28;99727.44;5050130;28;20063;-86
2022/06/15 02:11:46;;;;;;;9.32;6.55;;;;;;;21.08;65.33;99692.97;5051319;28;20021;-86
2022/06/15 02:14:24;;;;;;;8.13;7.32;;;;;;;21.21;65.38;99714.94;5050256;28;20468;-86
2022/06/15 02:17:01;;;;;;;9.77;7.40;;;;;;;21.21;65.34;99717.63;5051378;28;20096;-87
2022/06/15 02:19:32;;;;;;;8.85;6.95;;;;;;;20.58;65.25;99614.00;5051204;28;20017;-86
2022/06/15 02:22:04;;;;;;;8.05;6.65;;;;;;;21.16;65.36;99720.25;5049872;28;20486;-87
2022/06/15 02:24:30;;;;;;;;;;;;;;;21.22;66.03;99731.88;5050388;28;20063;-87
2022/06/15 02:26:56;;;;;;;9.05;8.10;;;;;;;21.05;65.36;99701.50;5049855;28;19905;-87
2022/06/15 02:29:26;;;;;;;7.88;7.20;;;;;;;21.33;65.46;99735.59;5051196;28;20034;-87
2022/06/15 02:31:56;;;;;;;8.48;7.35;;;;;;;21.36;65.21;99743.16;5049835;28;20028;-87
2022/06/15 02:34:22;;;;;;;12.40;7.75;;;;;;;21.00;65.47;99672.72;5051256;28;20386;-86
2022/06/15 02:36:48;;;;;;;13.00;7.90;;;;;;;21.03;65.53;99698.25;5050010;28;20036;-86
2022/06/15 02:39:13;;;;;;;8.27;7.38;;;;;;;21.05;65.74;99698.81;5050141;28;20029;-86
2022/06/15 02:41:38;;;;;;;10.40;7.07;;;;;;;20.75;65.25;99662.31;5050511;28;20039;-86
2022/06/15 02:44:07;;;;;;;7.93;7.05;;;;;;;20.61;65.11;99624.25;5050123;28;20032;-86
2022/06/15 02:46:38;;;;;;;8.02;7.25;;;;;;;20.82;65.15;99659.53;5051450;28;20079;-86
2022/06/15 02:49:04;;;;;;;10.80;7.30;;;;;;;20.67;65.31;99646.63;5049895;28;20059;-86
2022/06/15 02:51:38;;;;;;;9.70;6.68;;;;;;;21.34;64.58;99746.06;5050146;28;20036;-86
2022/06/15 02:54:16;;;;;;;9.73;7.05;;;;;;;21.18;63.89;99722.69;5051133;28;20029;-86
2022/06/15 02:56:42;;;;;;;8.05;7.35;;;;;;;21.01;63.91;99697.69;5050936;28;20517;-86
2022/06/15 02:59:07;;;;;;;7.93;7.00;;;;;;;21.08;63.85;99719.81;5049623;28;20027;-86
2022/06/15 03:01:35;;;;;;;7.60;6.47;;;;;;;21.17;63.87;99735.28;5049561;28;20028;-86
2022/06/15 03:04:01;;;;;;;9.35;6.63;;;;;;;20.97;63.64;99693.84;5049882;28;20028;-86
2022/06/15 03:06:29;;;;;;;7.38;6.13;;;;;;;20.89;63.39;99700.44;5053792;28;20028;-86
2022/06/15 03:08:56;;;;;;;8.25;6.47;;;;;;;20.08;62.99;99576.31;5053335;28;20410;-87
2022/06/15 03:11:25;;;;;;;8.32;6.35;;;;;;;21.09;62.99;99741.06;5053518;28;20025;-86
2022/06/15 03:13:52;;;;;;;7.95;6.05;;;;;;;21.17;62.67;99754.09;5054661;28;20021;-86
2022/06/15 03:16:18;;;;;;;8.63;6.45;;;;;;;21.19;63.05;99764.59;5054652;28;20078;-87
2022/06/15 03:18:44;;;;;;;10.13;6.90;;;;;;;20.19;62.81;99615.66;5054392;28;20021;-86
2022/06/15 03:21:10;;;;;;;7.10;6.35;;;;;;;20.47;62.57;99654.28;5053360;28;20486;-86
2022/06/15 03:23:36;;;;;;;10.70;6.72;;;;;;;20.60;62.50;99694.25;5053617;28;20028;-86
2022/06/15 03:26:03;;;;;;;7.40;6.72;;;;;;;20.99;62.82;99748.13;5053446;28;20029;-86
2022/06/15 03:28:29;;;;;;;7.18;6.25;;;;;;;20.91;62.83;99738.59;5053246;28;20425;-86
2022/06/15 03:30:55;;;;;;;7.32;6.32;;;;;;;20.52;62.44;99698.13;5053275;28;20029;-86
2022/06/15 03:33:21;;;;;;;6.75;6.07;;;;;;;21.16;62.30;99781.19;5053465;28;20535;-87
2022/06/15 03:35:47;;;;;;;8.00;5.80;;;;;;;21.16;62.18;99792.75;5053113;28;20025;-87
2022/06/15 03:38:13;;;;;;;10.73;6.47;;;;;;;20.98;61.71;99770.66;5054355;28;20053;-86
2022/06/15 03:40:44;;;;;;;7.10;6.30;;;;;;;20.92;61.67;99775.94;5053199;28;20047;-87
2022/06/15 03:43:10;;;;;;;6.95;5.95;;;;;;;21.01;61.83;99770.16;5052906;28;20020;-86
2022/06/15 03:45:36;;;;;;;7.03;6.38;;;;;;;21.14;62.03;99797.53;5054269;28;20025;-86
2022/06/15 03:48:02;;;;;;;8.48;6.20;;;;;;;20.66;61.76;99730.03;5054172;28;20033;-86
2022/06/15 03:50:31;;;;;;;6.53;5.57;;;;;;;20.95;61.62;99785.38;5053284;28;20090;-86
2022/06/15 03:52:58;;;;;;;10.25;5.93;;;;;;;20.46;61.27;99700.94;5053160;28;20024;-87
2022/06/15 03:55:24;;;;;;;7.72;6.13;;;;;;;20.62;60.92;99738.56;5052833;28;20049;-86
2022/06/15 03:57:49;;;;;;;9.35;5.47;;;;;;;20.58;60.77;99724.00;5053035;28;20058;-87
2022/06/15 04:00:17;;;;;;;6.22;5.57;;;;;;;21.01;60.39;99784.41;5052760;28;20448;-87
2022/06/15 04:02:43;;;;;;;7.32;6.00;;;;;;;20.73;60.57;99750.31;5054089;28;20025;-87
2022/06/15 04:05:16;;;;;;;7.38;6.22;;;;;;;21.22;60.36;99802.53;5054289;28;20047;-87
2022/06/15 04:10:25;;;;;;;8.70;6.10;;;;;;;21.40;59.67;99816.81;5054288;28;20509;-87
2022/06/15 04:12:51;;;;;;;6.57;5.70;;;;;;;21.25;59.55;99775.22;5052464;28;20025;-87
2022/06/15 04:15:16;;;;;;;7.63;6.05;;;;;;;21.43;59.85;99817.16;5053894;28;20017;-88
2022/06/15 04:17:44;;;;;;;7.05;6.25;;;;;;;20.83;59.37;99712.94;5052499;28;20568;-87
2022/06/15 04:20:32;;;;;;;8.35;6.15;;;;;;;20.99;59.79;99761.53;5060034;28;20028;-87
2022/06/15 04:22:58;;;;;;;9.48;5.65;;;;;;;19.87;59.11;99542.91;5064293;28;20028;-86
2022/06/15 04:25:24;;;;;;;5.38;4.85;;;;;;;21.01;58.99;99711.94;5066367;28;20031;-87
2022/06/15 04:27:49;;;;;;;8.05;5.78;;;;;;;21.06;58.70;99727.31;5065709;28;20025;-86
2022/06/15 04:30:15;;;;;;;6.75;5.07;;;;;;;21.51;58.77;99800.63;5062463;28;20048;-86
2022/06/15 04:32:41;;;;;;;5.68;5.18;;;;;;;21.46;58.31;99795.16;5065360;28;20112;-86
2022/06/15 04:35:07;;;;;;;7.35;5.10;;;;;;;21.18;57.96;99742.28;5057421;28;20024;-87
2022/06/15 04:37:33;;;;;;;5.78;5.18;;;;;;;21.32;57.85;99779.59;5053464;28;20021;-87
2022/06/15 04:39:58;;;;;;;9.25;5.38;;;;;;;21.55;57.67;99822.44;5051889;28;20023;-87
2022/06/15 04:42:24;;;;;;;8.52;4.80;;;;;;;21.02;57.44;99731.53;5051891;28;20025;-86
2022/06/15 04:44:51;;;;;;;5.82;4.95;;;;;;;21.65;57.39;99838.78;5051923;28;20449;-87
2022/06/15 04:47:16;;;;;;;8.50;5.85;;;;;;;20.42;57.35;99628.19;5051818;28;20045;-87
2022/06/15 04:49:42;;;;;;;6.13;4.63;;;;;;;21.28;57.13;99773.09;5051672;28;20059;-87
2022/06/15 04:52:07;;;;;;;5.10;4.60;;;;;;;21.35;56.99;99790.69;5052790;28;20017;-87
2022/06/15 04:54:33;;;;;;;5.03;4.50;;;;;;;21.26;56.91;99797.50;5052476;28;20021;-87
2022/06/15 04:56:58;;;;;;;6.60;4.78;;;;;;;20.83;56.58;99722.88;5052991;28;20063;-87
2022/06/15 04:59:23;;;;;;;6.57;4.88;;;;;;;21.35;56.89;99808.66;5051591;28;20024;-87
2022/06/15 05:01:49;;;;;;;9.10;4.85;;;;;;;20.61;56.26;99696.69;5051589;28;20017;-87
2022/06/15 05:04:14;;;;;;;5.70;4.10;;;;;;;21.06;56.12;99786.38;5051377;28;20498;-86
2022/06/15 05:06:41;;;;;;;6.68;4.18;;;;;;;21.18;55.82;99787.13;5051641;28;20078;-87
2022/06/15 05:09:10;;;;;;;5.90;4.00;;;;;;;21.45;55.68;99825.78;5052592;28;20025;-87
2022/06/15 05:11:36;;;;;;;7.50;4.93;;;;;;;21.16;55.71;99779.31;5051362;28;20099;-87
2022/06/15 05:14:03;;;;;;;5.63;3.92;;;;;;;21.47;55.61;99815.59;5051222;28;20044;-87
2022/06/15 05:16:28;;;;;;;6.32;4.03;;;;;;;21.70;55.40;99838.03;5051055;28;20489;-87
2022/06/15 05:18:54;;;;;;;7.65;4.82;;;;;;;21.56;55.49;99822.25;5051400;28;20052;-87
2022/06/15 05:21:19;;;;;;;8.38;4.70;;;;;;;21.05;55.35;99764.06;5050916;28;20023;-86
2022/06/15 05:23:45;;;;;;;7.53;4.57;;;;;;;21.73;55.23;99841.06;5050867;28;20020;-86
2022/06/15 05:26:11;;;;;;;7.03;4.88;;;;;;;21.44;55.10;99797.28;5038375;28;20021;-87
2022/06/15 05:28:39;;;;;;;7.47;4.88;;;;;;;21.54;54.81;99813.59;5046903;28;20481;-87
2022/06/15 05:31:20;;;;;;;6.88;4.63;;;;;;;21.70;54.44;99865.75;5031283;28;20032;-88
2022/06/15 05:33:46;;;;;;;5.90;4.63;;;;;;;21.67;55.08;99844.72;5042634;28;20039;-88
2022/06/15 05:36:15;;;;;;;9.75;5.45;;;;;;;21.31;55.20;99788.72;5050598;28;20494;-88
2022/06/15 05:38:41;;;;;;;5.75;4.28;;;;;;;21.14;55.05;99759.13;5036734;28;20028;-88
2022/06/15 05:41:07;;;;;;;9.23;4.78;;;;;;;21.22;54.68;99754.22;5052133;28;20021;-87
2022/06/15 05:43:35;;;;;;;8.85;4.40;;;;;;;20.99;54.25;99716.72;5045820;28;20517;-88
2022/06/15 05:46:15;;;;;;;6.70;4.22;;;;;;;21.80;53.99;99852.47;5033233;28;20505;-88
2022/06/15 05:48:41;;;;;;;7.43;4.47;;;;;;;21.24;54.28;99775.44;5046315;28;20410;-88
2022/06/15 05:51:06;;;;;;;12.48;4.78;;;;;;;21.25;54.11;99745.66;5034343;28;20025;-88
2022/06/15 05:53:32;;;;;;;4.40;4.00;;;;;;;21.63;53.70;99818.59;5041929;28;20029;-88
2022/06/15 05:55:57;;;;;;;8.82;4.72;;;;;;;21.62;53.86;99811.59;5046111;28;20052;-88
2022/06/15 05:58:23;;;;;;;6.20;4.63;;;;;;;21.59;53.93;99810.19;5037439;28;20018;-88
2022/06/15 06:00:48;;;;;;;6.65;4.13;;;;;;;21.78;53.86;99843.03;5049380;28;20104;-88
2022/06/15 06:03:16;;;;;;;5.95;4.18;;;;;;;21.60;53.67;99789.50;5048243;28;20035;-87
2022/06/15 06:05:41;;;;;;;6.80;4.65;;;;;;;21.99;53.48;99849.53;5044322;28;20040;-88
2022/06/15 06:08:07;;;;;;;4.38;3.95;;;;;;;21.88;52.82;99827.06;5030565;28;20022;-88
2022/06/15 06:10:32;;;;;;;6.75;4.20;;;;;;;21.92;52.83;99830.88;5038315;28;20028;-88
2022/06/15 06:12:58;;;;;;;11.75;4.47;;;;;;;21.95;52.75;99808.88;5043523;28;20449;-87
2022/06/15 06:15:23;;;;;;;5.88;3.97;;;;;;;22.47;53.13;99854.34;5031506;28;20026;-88
2022/06/15 06:17:49;;;;;;;5.03;4.53;;;;;;;22.29;52.80;99828.50;5030228;28;20020;-88
2022/06/15 06:20:14;;;;;;;12.90;5.15;;;;;;;22.76;52.08;99888.09;5032513;28;20083;-87
2022/06/15 06:22:39;;;;;;;6.95;4.13;;;;;;;22.13;51.31;99805.13;5060280;28;20509;-88
2022/06/15 06:25:06;;;;;;;7.78;4.00;;;;;;;22.26;50.75;99806.66;5033949;28;20087;-87
2022/06/15 06:27:31;;;;;;;7.93;6.97;;;;;;;22.00;50.95;99765.94;5031527;28;20018;-88
2022/06/15 06:29:56;;;;;;;7.05;4.63;;;;;;;22.25;50.85;99813.91;5032282;28;20482;-88
2022/06/15 06:32:22;;;;;;;7.53;5.10;;;;;;;22.70;50.88;99848.72;5034734;28;20029;-89
2022/06/15 06:34:48;;;;;;;7.30;4.10;;;;;;;22.34;49.87;99798.19;5032501;28;20028;-89
2022/06/15 06:37:15;;;;;;;5.80;4.10;;;;;;;23.06;49.75;99917.34;5042169;28;20232;-88
2022/06/15 06:39:41;;;;;;;4.32;3.80;;;;;;;22.94;48.78;99878.13;5047949;28;20017;-88
2022/06/15 06:42:07;;;;;;;17.17;13.27;;;;;;;22.36;48.62;99793.38;5052464;28;20025;-88
2022/06/15 06:44:32;;;;;;;6.15;4.03;;;;;;;22.47;48.19;99811.28;5040338;28;20469;-89
2022/06/15 06:46:58;;;;;;;6.43;4.47;;;;;;;22.49;47.93;99790.31;5039516;28;20028;-88
2022/06/15 06:49:24;;;;;;;6.93;3.60;;;;;;;22.88;48.01;99830.66;5033991;28;20383;-88
2022/06/15 06:51:50;;;;;;;6.85;4.38;;;;;;;23.35;47.77;99900.97;5035635;28;20029;-88
2022/06/15 06:54:19;;;;;;;5.35;3.35;;;;;;;23.39;47.19;99902.91;5048989;28;20029;-89
2022/06/15 06:56:44;;;;;;;4.03;3.13;;;;;;;22.98;47.31;99831.59;5054099;28;20049;-89
2022/06/15 06:59:12;;;;;;;5.90;4.30;;;;;;;23.25;46.87;99869.34;5054047;28;20406;-88
2022/06/15 07:01:39;;;;;;;10.45;3.80;;;;;;;23.56;46.58;99899.34;5037009;28;20421;-88
2022/06/15 07:04:05;;;;;;;9.52;4.93;;;;;;;23.20;46.46;99861.22;5037475;28;20032;-88
2022/06/15 07:06:32;;;;;;;5.18;4.68;;;;;;;23.33;46.44;99855.44;5036685;28;20021;-88
2022/06/15 07:08:57;;;;;;;8.77;6.30;;;;;;;23.25;46.38;99850.50;5043290;28;20029;-88
2022/06/15 07:11:23;;;;;;;10.73;6.15;;;;;;;23.77;45.92;99925.44;5049218;28;20037;-88
2022/06/15 07:13:49;;;;;;;5.75;4.10;;;;;;;23.85;44.75;99921.50;5044514;28;20435;-88
2022/06/15 07:16:17;;;;;;;7.97;4.22;;;;;;;23.83;43.64;99913.66;5048165;28;20064;-87
2022/06/15 07:18:44;;;;;;;6.72;4.10;;;;;;;23.92;43.61;99908.59;5039164;28;20021;-88
2022/06/15 07:21:13;;;;;;;5.65;3.42;;;;;;;23.44;43.10;99822.13;5052376;28;20493;-87
2022/06/15 07:23:40;;;;;;;5.03;4.45;;;;;;;23.73;43.44;99862.31;5037408;28;21483;-88
2022/06/15 07:26:10;;;;;;;7.97;5.45;;;;;;;24.15;43.90;99913.66;5043864;28;20028;-88
2022/06/15 07:28:36;;;;;;;4.78;3.45;;;;;;;23.86;43.12;99890.75;5045520;28;20438;-86
2022/06/15 07:31:02;;;;;;;5.80;5.22;;;;;;;23.57;43.07;99806.63;5038964;28;20409;-87
2022/06/15 07:33:27;;;;;;;3.80;3.00;;;;;;;23.71;42.80;99834.78;5052302;28;20029;-87
2022/06/15 07:35:53;;;;;;;4.18;3.00;;;;;;;23.97;42.78;99870.88;5035477;28;20028;-87
2022/06/15 07:38:19;;;;;;;10.23;9.23;;;;;;;23.42;43.42;99801.88;5034311;28;20497;-87
2022/06/15 07:40:46;;;;;;;6.90;5.22;;;;;;;23.37;43.58;99773.00;5036764;28;20410;-87
2022/06/15 07:43:12;;;;;;;7.72;3.70;;;;;;;23.92;42.77;99833.91;5045112;28;20033;-87
2022/06/15 07:45:38;;;;;;;8.18;3.50;;;;;;;23.77;42.31;99823.78;5059122;28;20044;-86
2022/06/15 07:50:48;;;;;;;8.77;5.72;;;;;;;24.09;42.23;99818.38;5043663;28;20035;-87
2022/06/15 07:53:13;;;;;;;6.47;4.00;;;;;;;24.43;42.17;99869.34;5040786;28;20021;-86
2022/06/15 07:55:43;;;;;;;5.40;3.10;;;;;;;24.38;42.24;99862.03;5046115;28;20143;-87
2022/06/15 07:58:09;;;;;;;7.60;4.28;;;;;;;24.46;42.38;99841.84;5035824;28;20029;-86
2022/06/15 08:00:39;;;;;;;6.20;4.85;;;;;;;24.35;42.41;99810.47;5032464;28;20013;-88
2022/06/15 08:03:06;;;;;;;9.75;8.18;;;;;;;24.40;42.13;99854.50;5036785;28;20411;-88
2022/06/15 08:05:38;;;;;;;10.77;9.38;;;;;;;24.75;42.57;99855.78;5050719;28;20040;-87
2022/06/15 08:08:07;;;;;;;9.20;4.20;;;;;;;25.02;41.96;99866.44;5042042;28;20029;-88
2022/06/15 08:10:34;;;;;;;8.43;6.00;;;;;;;24.83;41.71;99846.34;5044575;28;20025;-88
2022/06/15 08:13:00;;;;;;;8.35;5.53;;;;;;;25.27;42.01;99901.69;5037367;28;20083;-87
2022/06/15 08:15:26;;;;;;;6.28;4.00;;;;;;;24.86;41.18;99821.50;5044873;28;20040;-86
2022/06/15 08:18:05;;;;;;;10.93;5.95;;;;;;;25.07;41.03;99852.94;5040482;28;20457;-88
2022/06/15 08:20:43;;;;;;;6.72;5.45;;;;;;;25.14;41.30;99853.50;5036328;28;20057;-87
2022/06/15 08:23:16;;;;;;;5.18;4.63;;;;;;;25.59;41.71;99901.47;5049199;28;20037;-88
2022/06/15 08:25:49;;;;;;;6.95;4.57;;;;;;;25.15;40.71;99822.72;5040177;28;20524;-89
2022/06/15 08:28:18;;;;;;;8.73;5.22;;;;;;;25.36;40.44;99863.31;5036680;28;20116;-87
2022/06/15 08:30:45;;;;;;;8.00;6.00;;;;;;;25.18;40.79;99830.28;5041547;28;20117;-88
2022/06/15 08:33:10;;;;;;;5.18;3.42;;;;;;;25.27;40.13;99825.19;5038120;28;20032;-87
2022/06/15 08:35:37;;;;;;;11.10;6.60;;;;;;;25.72;40.43;99881.25;5043608;28;20383;-87
2022/06/15 08:38:08;;;;;;;9.70;5.57;;;;;;;25.72;40.59;99880.44;5033199;28;20036;-88
2022/06/15 08:40:59;;;;;;;15.07;8.80;;;;;;;25.98;40.65;99909.94;5033144;28;20036;-88
2022/06/15 08:43:55;;;;;;;11.05;5.05;;;;;;;25.87;39.97;99889.38;5026945;28;20498;-88
2022/06/15 08:46:35;;;;;;;8.40;4.55;;;;;;;26.17;40.09;99912.13;5042359;28;20036;-88
2022/06/15 08:49:10;;;;;;;20.60;7.20;;;;;;;26.16;40.43;99905.09;5049792;28;20041;-87
2022/06/15 08:51:45;;;;;;;7.05;5.13;;;;;;;26.13;40.58;99887.50;5031101;28;20037;-87
2022/06/15 08:54:24;;;;;;;7.20;3.95;;;;;;;26.29;40.23;99885.56;5032551;28;20029;-87
2022/06/15 08:57:05;;;;;;;9.07;4.25;;;;;;;26.22;39.26;99853.38;5038662;28;20124;-87
2022/06/15 08:59:39;;;;;;;8.75;3.92;;;;;;;26.68;39.05;99903.94;5045831;28;20767;-88
2022/06/15 09:02:19;;;;;;;8.35;5.65;;;;;;;26.85;38.45;99910.69;5034997;28;20556;-89
2022/06/15 09:04:56;;;;;;;5.78;4.30;;;;;;;26.17;37.94;99783.00;5049304;28;20024;-89
2022/06/15 09:07:28;;;;;;;4.57;3.22;;;;;;;27.16;37.79;99900.56;5047193;28;20108;-88
2022/06/15 09:09:56;;;;;;;7.72;4.50;;;;;;;27.23;37.42;99894.84;5048075;28;20090;-88
2022/06/15 09:15:27;;;;;;;10.27;7.47;;;;;;;27.57;37.32;99900.34;5052785;28;20044;-89
2022/06/15 09:17:55;;;;;;;6.63;3.75;;;;;;;27.49;36.65;99880.03;5034166;28;20096;-89
2022/06/15 09:20:27;;;;;;;5.82;3.50;;;;;;;27.40;36.61;99845.66;5031672;28;20617;-88
2022/06/15 09:23:41;;;;;;;5.32;2.92;;;;;;;27.56;36.09;99844.47;5039636;28;20108;-88
2022/06/15 09:26:19;;;;;;;4.78;3.25;;;;;;;27.76;35.86;99868.78;5042835;28;20028;-89
2022/06/15 09:28:53;;;;;;;6.38;3.50;;;;;;;28.13;35.22;99911.63;5052434;28;20021;-89
2022/06/15 09:31:25;;;;;;;5.28;3.45;;;;;;;28.32;35.26;99889.25;5041045;28;20052;-88
2022/06/15 09:34:03;;;;;;;5.28;3.55;;;;;;;27.95;35.03;99824.66;5038000;28;21790;-89
2022/06/15 09:36:51;;;;;;;5.15;3.17;;;;;;;28.54;34.83;99884.13;5040467;28;20036;-89
2022/06/15 09:39:18;;;;;;;7.32;6.10;;;;;;;28.82;35.23;99892.50;5043528;28;20582;-87
2022/06/15 09:42:12;;;;;;;7.85;4.30;;;;;;;29.10;34.43;99889.75;5041483;28;20116;-87
2022/06/15 09:44:42;;;;;;;9.18;7.43;;;;;;;29.33;34.32;99887.28;5026583;28;20034;-87
2022/06/15 09:47:32;;;;;;;7.00;4.57;;;;;;;29.54;34.12;99882.38;5042763;28;20032;-87
2022/06/15 09:50:32;;;;;;;13.85;4.28;;;;;;;29.73;32.84;99881.28;5050005;28;20033;-87
2022/06/15 09:53:18;;;;;;;5.30;4.33;;;;;;;29.88;33.19;99876.69;5031082;28;20112;-87
2022/06/15 09:55:51;;;;;;;5.10;3.85;;;;;;;29.12;32.71;99741.81;5037093;28;20490;-88
2022/06/15 09:58:20;;;;;;;3.03;2.63;;;;;;;30.27;31.40;99879.03;5045455;28;20033;-87
2022/06/15 10:00:49;;;;;;;7.30;6.05;;;;;;;30.32;31.47;99868.84;5033567;28;20029;-87
2022/06/15 10:03:30;;;;;;;6.18;4.53;;;;;;;30.42;31.17;99864.31;5051432;28;20016;-86
2022/06/15 10:06:00;;;;;;;5.53;3.10;;;;;;;30.54;31.87;99851.03;5044819;28;20109;-86
2022/06/15 10:08:26;;;;;;;9.10;4.57;;;;;;;30.57;31.96;99847.69;5039198;28;20022;-88
2022/06/15 10:10:58;;;;;;;4.82;2.97;;;;;;;30.57;31.05;99826.72;5034445;28;20083;-87
2022/06/15 10:13:33;;;;;;;5.00;2.60;;;;;;;30.85;31.14;99871.13;5030487;28;20045;-87
2022/06/15 10:16:30;;;;;;;6.88;5.25;;;;;;;30.10;31.26;99758.97;5036718;28;20029;-87
2022/06/15 10:19:08;;;;;;;5.32;3.83;;;;;;;30.58;30.94;99801.06;5045486;28;20037;-85
2022/06/15 10:21:36;;;;;;;7.75;5.38;;;;;;;30.67;31.15;99812.09;5044499;28;20108;-88
2022/06/15 10:24:14;;;;;;;10.98;9.07;;;;;;;31.26;30.56;99845.75;5046552;28;20033;-87
2022/06/15 10:26:46;;;;;;;5.88;4.00;;;;;;;31.22;29.79;99839.31;5029850;28;20025;-88
2022/06/15 10:29:14;;;;;;;5.95;3.67;;;;;;;31.47;29.67;99860.53;5038311;28;20399;-87
2022/06/15 10:31:43;;;;;;;7.35;2.97;;;;;;;31.36;29.42;99829.16;5041526;28;20465;-87
2022/06/15 10:34:18;;;;;;;5.53;3.38;;;;;;;31.73;30.10;99868.16;5045593;28;20477;-88
2022/06/15 10:36:43;;;;;;;3.88;3.10;;;;;;;31.31;30.04;99821.09;5044271;28;20048;-87
2022/06/15 10:39:25;;;;;;;4.65;2.80;;;;;;;31.42;29.57;99803.34;5047409;28;20017;-87
2022/06/15 10:41:51;;;;;;;5.22;4.70;;;;;;;31.55;29.89;99815.34;5044934;28;20099;-87
2022/06/15 10:44:50;;;;;;;7.90;2.67;;;;;;;31.27;29.40;99769.06;5027091;28;20033;-88
2022/06/15 10:47:18;;;;;;;4.13;3.50;;;;;;;31.89;29.32;99861.19;5039659;28;20582;-87
2022/06/15 10:49:51;;;;;;;6.10;3.28;;;;;;;31.73;29.27;99806.16;5036007;28;20030;-87
2022/06/15 10:52:28;;;;;;;4.65;3.15;;;;;;;32.35;29.40;99854.59;5030204;28;20036;-87
2022/06/15 11:03:46;;;;;;;5.22;3.70;;;;;;;32.45;28.18;99781.31;5030972;28;20037;-85
2022/06/15 11:06:11;;;;;;;5.13;4.63;;;;;;;31.91;28.54;99812.53;5046474;28;20025;-85
2022/06/15 11:08:42;;;;;;;5.03;3.20;;;;;;;31.50;28.76;99786.25;5050486;28;20037;-86
2022/06/15 11:11:24;;;;;;;5.28;2.95;;;;;;;31.57;28.30;99761.25;5049176;28;20028;-86
2022/06/15 11:13:57;;;;;;;8.77;4.40;;;;;;;32.20;28.57;99840.19;5049006;28;20139;-85
2022/06/15 11:19:14;;;;;;;10.48;3.67;;;;;;;32.15;28.89;99757.56;5038820;28;20040;-85
2022/06/15 11:21:49;;;;;;;4.63;3.30;;;;;;;32.98;28.74;99829.56;5050635;28;20024;-85
2022/06/15 11:24:25;;;;;;;6.55;2.95;;;;;;;33.21;28.59;99832.97;5050469;28;20259;-86
2022/06/15 11:26:59;;;;;;;4.57;2.45;;;;;;;32.80;27.83;99760.38;5050737;28;20031;-85
2022/06/15 11:29:28;;;;;;;5.97;2.63;;;;;;;33.37;28.06;99831.38;5052642;28;20468;-86
2022/06/15 11:31:55;;;;;;;5.20;3.20;;;;;;;32.97;28.19;99739.63;5052625;28;20521;-86
2022/06/15 11:34:29;;;;;;;6.07;3.13;;;;;;;33.11;27.98;99754.75;5050127;28;20029;-86
2022/06/15 11:36:59;;;;;;;4.40;3.10;;;;;;;33.71;27.65;99818.81;5045815;28;20013;-86
2022/06/15 11:39:36;;;;;;;8.02;4.03;;;;;;;33.82;27.35;99816.56;5038397;28;20017;-85
2022/06/15 11:42:03;;;;;;;5.43;2.58;;;;;;;33.80;27.54;99822.34;5039476;28;20029;-85
2022/06/15 11:44:36;;;;;;;8.40;5.93;;;;;;;33.37;27.08;99768.44;5039372;28;20017;-86
2022/06/15 11:47:29;;;;;;;5.95;2.70;;;;;;;33.78;26.97;99819.94;5044127;28;20086;-86
2022/06/15 11:50:05;;;;;;;5.85;3.55;;;;;;;33.22;27.03;99779.03;5048145;28;20402;-85
2022/06/15 11:52:30;;;;;;;4.75;4.05;;;;;;;33.73;27.23;99822.03;5035267;28;20061;-86
2022/06/15 11:55:20;;;;;;;5.70;3.13;;;;;;;33.98;26.17;99821.19;5051529;28;20534;-85
2022/06/15 11:57:52;;;;;;;6.30;3.30;;;;;;;34.06;25.93;99822.31;5052921;28;20490;-87
2022/06/15 12:00:27;;;;;;;4.38;2.50;;;;;;;34.09;25.26;99822.44;5047055;28;20052;-87
2022/06/15 12:03:07;;;;;;;4.68;3.45;;;;;;;34.18;25.66;99816.13;5048662;28;20022;-87
2022/06/15 12:05:45;;;;;;;3.42;2.63;;;;;;;34.29;25.89;99820.16;5036546;28;20017;-87
2022/06/15 12:08:20;;;;;;;4.70;3.70;;;;;;;33.68;26.42;99783.88;5051503;28;20510;-87
2022/06/15 12:10:59;;;;;;;3.97;3.03;;;;;;;33.96;26.41;99830.88;5048714;28;20114;-87